createdAt,value
2024-02-13T00:02:53.887Z,95.52
2024-02-13T00:06:56.009Z,95.44
2024-02-13T00:10:57.883Z,94.92
2024-02-13T00:14:59.815Z,94.89
2024-02-13T00:19:03.243Z,95.73
2024-02-13T00:23:05.095Z,95.61
2024-02-13T00:27:06.928Z,95.20
2024-02-13T00:31:08.972Z,95.17
2024-02-13T00:35:12.330Z,95.17
2024-02-13T00:39:14.171Z,94.92
2024-02-13T00:43:16.035Z,95.08
2024-02-13T00:47:17.630Z,94.90
2024-02-13T00:51:20.998Z,95.05
2024-02-13T00:55:22.711Z,95.89
2024-02-13T00:59:25.245Z,95.97
2024-02-13T01:03:27.812Z,95.94
2024-02-13T01:07:31.537Z,95.57
2024-02-13T01:11:33.192Z,95.86
2024-02-13T01:15:34.890Z,95.67
2024-02-13T01:19:36.587Z,95.59
2024-02-13T01:23:39.891Z,96.00
2024-02-13T01:27:41.938Z,95.75
2024-02-13T01:31:43.786Z,96.13
2024-02-13T01:35:45.506Z,95.44
2024-02-13T01:39:48.638Z,95.67
2024-02-13T01:43:50.468Z,95.53
2024-02-13T01:47:52.595Z,95.33
2024-02-13T01:51:54.417Z,95.11
2024-02-13T01:55:59.050Z,95.77
2024-02-13T02:00:00.832Z,95.60
2024-02-13T02:04:04.448Z,96.71
2024-02-13T02:08:07.522Z,96.20
2024-02-13T02:12:10.749Z,96.50
2024-02-13T02:16:13.073Z,96.39
2024-02-13T02:20:15.618Z,96.24
2024-02-13T02:24:17.240Z,96.24
2024-02-13T02:28:20.681Z,96.50
2024-02-13T02:32:22.493Z,96.14
2024-02-13T02:36:24.191Z,96.48
2024-02-13T02:40:26.102Z,96.17
2024-02-13T02:44:29.359Z,96.66
2024-02-13T02:48:31.463Z,96.45
2024-02-13T02:52:33.351Z,96.30
2024-02-13T02:56:35.114Z,96.46
2024-02-13T03:00:39.356Z,96.19
2024-02-13T03:04:40.988Z,95.98
2024-02-13T03:08:43.041Z,96.44
2024-02-13T03:12:44.794Z,95.75
2024-02-13T03:16:47.843Z,95.75
2024-02-13T03:20:49.996Z,96.73
2024-02-13T03:24:52.942Z,96.72
2024-02-13T03:28:54.770Z,97.09
2024-02-13T03:32:57.982Z,96.01
2024-02-13T03:36:59.884Z,96.36
2024-02-13T03:41:01.686Z,96.96
2024-02-13T03:45:03.951Z,98.08
2024-02-13T03:49:07.663Z,98.01
2024-02-13T03:53:11.954Z,98.53
2024-02-13T03:57:13.822Z,97.44
2024-02-13T04:01:15.614Z,97.61
2024-02-13T04:05:18.802Z,96.83
2024-02-13T04:09:21.011Z,96.79
2024-02-13T04:13:22.679Z,97.12
2024-02-13T04:17:24.829Z,96.85
2024-02-13T04:21:27.914Z,97.18
2024-02-13T04:25:29.937Z,97.83
2024-02-13T04:29:31.756Z,96.94
2024-02-13T04:33:33.509Z,97.64
2024-02-13T04:37:37.142Z,97.67
2024-02-13T04:41:38.879Z,97.50
2024-02-13T04:45:40.555Z,97.41
2024-02-13T04:49:42.393Z,98.00
2024-02-13T04:53:45.811Z,97.22
2024-02-13T04:57:47.690Z,97.82
2024-02-13T05:01:49.372Z,97.64
2024-02-13T05:05:51.107Z,97.14
2024-02-13T05:09:54.330Z,97.86
2024-02-13T05:13:58.965Z,97.36
2024-02-13T05:18:02.438Z,97.35
2024-02-13T05:22:04.543Z,96.84
2024-02-13T05:26:07.603Z,96.90
2024-02-13T05:30:10.082Z,97.61
2024-02-13T05:34:12.026Z,96.90
2024-02-13T05:38:13.874Z,96.87
2024-02-13T05:42:16.968Z,96.60
2024-02-13T05:46:18.786Z,97.04
2024-02-13T05:50:20.692Z,96.70
2024-02-13T05:54:22.553Z,96.31
2024-02-13T05:58:25.558Z,96.50
2024-02-13T06:02:27.272Z,97.21
2024-02-13T06:06:29.470Z,96.99
2024-02-13T06:10:31.429Z,96.51
2024-02-13T06:14:35.114Z,96.28
2024-02-13T06:18:37.181Z,96.13
2024-02-13T06:22:38.933Z,96.50
2024-02-13T06:26:40.614Z,96.78
2024-02-13T06:30:44.063Z,96.22
2024-02-13T06:34:46.045Z,96.14
2024-02-13T06:38:47.799Z,97.01
2024-02-13T06:42:49.559Z,96.46
2024-02-13T06:46:52.730Z,96.17
2024-02-13T06:50:54.449Z,96.58
2024-02-13T06:54:56.098Z,97.04
2024-02-13T06:58:57.949Z,96.87
2024-02-13T07:03:01.111Z,96.63
2024-02-13T07:07:13.857Z,96.28
2024-02-13T07:11:21.417Z,96.87
2024-02-13T07:15:23.313Z,96.58
2024-02-13T07:19:26.694Z,96.64
2024-02-13T07:23:28.537Z,96.67
2024-02-13T07:27:30.120Z,97.15
2024-02-13T07:31:31.764Z,96.56
2024-02-13T07:35:34.945Z,96.56
2024-02-13T07:39:36.802Z,96.37
2024-02-13T07:43:38.417Z,96.86
2024-02-13T07:47:40.088Z,94.62
2024-02-13T07:51:43.142Z,93.58
2024-02-13T07:55:44.748Z,94.58
2024-02-13T07:59:47.117Z,92.62
2024-02-13T08:03:49.212Z,93.71
2024-02-13T08:07:52.674Z,91.24
2024-02-13T08:11:54.451Z,90.38
2024-02-13T08:15:56.121Z,90.13
2024-02-13T08:19:57.786Z,90.08
2024-02-13T08:24:00.785Z,87.79
2024-02-13T08:28:02.484Z,87.23
2024-02-13T08:32:05.321Z,86.64
2024-02-13T08:36:08.215Z,87.27
2024-02-13T08:40:12.555Z,87.25
2024-02-13T08:44:14.185Z,86.96
2024-02-13T08:48:16.076Z,86.92
2024-02-13T08:52:17.758Z,86.68
2024-02-13T08:56:20.821Z,85.20
2024-02-13T09:00:22.820Z,83.92
2024-02-13T09:04:24.777Z,84.24
2024-02-13T09:08:26.529Z,84.13
2024-02-13T09:12:29.632Z,82.98
2024-02-13T09:16:31.405Z,82.67
2024-02-13T09:20:33.208Z,81.54
2024-02-13T09:24:34.877Z,80.50
2024-02-13T09:28:37.918Z,78.88
2024-02-13T09:32:39.747Z,80.54
2024-02-13T09:36:42.308Z,79.09
2024-02-13T09:40:44.084Z,78.61
2024-02-13T09:44:47.197Z,79.55
2024-02-13T09:48:50.120Z,78.32
2024-02-13T09:52:54.383Z,78.08
2024-02-13T09:56:58.744Z,76.93
2024-02-13T10:01:02.493Z,78.42
2024-02-13T10:05:04.639Z,78.18
2024-02-13T10:09:06.828Z,76.31
2024-02-13T10:13:08.446Z,75.02
2024-02-13T10:17:11.834Z,76.77
2024-02-13T10:21:14.480Z,73.38
2024-02-13T10:25:16.901Z,72.61
2024-02-13T10:29:18.515Z,74.38
2024-02-13T10:33:21.613Z,73.55
2024-02-13T10:37:26.422Z,69.94
2024-02-13T10:41:28.224Z,66.76
2024-02-13T10:45:30.362Z,65.12
2024-02-13T10:49:43.906Z,63.12
2024-02-13T10:53:47.773Z,61.39
2024-02-13T10:57:51.498Z,56.48
2024-02-13T11:01:55.788Z,53.80
2024-02-13T11:05:59.024Z,54.61
2024-02-13T11:10:00.986Z,54.16
2024-02-13T11:14:02.824Z,51.45
2024-02-13T11:18:10.013Z,50.62
2024-02-13T11:22:13.260Z,46.70
2024-02-13T11:26:18.983Z,44.33
2024-02-13T11:30:21.729Z,44.41
2024-02-13T11:34:38.977Z,45.26
2024-02-13T11:38:42.662Z,41.20
2024-02-13T11:42:44.343Z,40.03
2024-02-13T11:46:49.967Z,41.82
2024-02-13T11:50:51.695Z,40.43
2024-02-13T11:54:54.836Z,43.28
2024-02-13T11:59:03.522Z,42.50
2024-02-13T12:03:05.517Z,43.34
2024-02-13T12:07:07.673Z,43.82
2024-02-13T12:11:11.082Z,43.68
2024-02-13T12:15:13.165Z,42.66
2024-02-13T12:19:15.569Z,41.59
2024-02-13T12:23:17.607Z,36.39
2024-02-13T12:27:20.698Z,34.85
2024-02-13T12:31:23.998Z,37.45
2024-02-13T12:35:25.708Z,41.90
2024-02-13T12:39:27.723Z,44.29
2024-02-13T12:43:31.187Z,45.67
2024-02-13T12:47:32.903Z,45.24
2024-02-13T12:51:34.935Z,48.43
2024-02-13T12:55:37.563Z,49.68
2024-02-13T12:59:40.698Z,49.89
2024-02-13T13:03:42.555Z,49.67
2024-02-13T13:07:46.799Z,52.33
2024-02-13T13:11:49.171Z,52.62
2024-02-13T13:15:52.585Z,53.32
2024-02-13T13:19:54.371Z,52.61
2024-02-13T13:23:57.581Z,52.92
2024-02-13T13:27:59.597Z,52.11
2024-02-13T13:32:02.706Z,52.91
2024-02-13T13:36:04.644Z,51.24
2024-02-13T13:40:08.389Z,52.05
2024-02-13T13:44:10.905Z,52.02
2024-02-13T13:48:16.263Z,50.61
2024-02-13T13:52:18.121Z,50.21
2024-02-13T13:56:19.994Z,52.83
2024-02-13T14:00:21.909Z,52.35
2024-02-13T14:04:25.253Z,51.91
2024-02-13T14:08:27.262Z,52.10
2024-02-13T14:12:29.210Z,50.54
2024-02-13T14:16:31.111Z,51.43
2024-02-13T14:20:34.579Z,51.32
2024-02-13T14:24:36.338Z,52.99
2024-02-13T14:28:37.984Z,53.42
2024-02-13T14:32:39.816Z,53.07
2024-02-13T14:36:44.850Z,53.44
2024-02-13T14:40:47.182Z,56.00
2024-02-13T14:44:48.999Z,54.03
2024-02-13T14:48:51.110Z,55.38
2024-02-13T14:52:57.621Z,54.91
2024-02-13T14:56:59.649Z,57.31
2024-02-13T15:01:01.542Z,57.45
2024-02-13T15:05:03.570Z,60.02
2024-02-13T15:09:06.645Z,60.12
2024-02-13T15:13:08.367Z,60.71
2024-02-13T15:17:16.059Z,61.84
2024-02-13T15:21:18.039Z,60.84
2024-02-13T15:25:21.123Z,61.59
2024-02-13T15:29:22.931Z,63.01
2024-02-13T15:33:24.691Z,62.80
2024-02-13T15:37:26.511Z,61.53
2024-02-13T15:41:30.617Z,60.58
2024-02-13T15:45:33.170Z,61.00
2024-02-13T15:49:36.106Z,63.21
2024-02-13T15:53:38.033Z,62.71
2024-02-13T15:57:42.691Z,62.17
2024-02-13T16:01:44.445Z,62.80
2024-02-13T16:05:46.269Z,63.06
2024-02-13T16:09:48.011Z,63.75
2024-02-13T16:13:51.008Z,65.40
2024-02-13T16:17:52.814Z,65.23
2024-02-13T16:21:54.537Z,67.01
2024-02-13T16:25:56.317Z,68.68
2024-02-13T16:29:59.460Z,68.40
2024-02-13T16:34:01.389Z,68.53
2024-02-13T16:38:04.751Z,69.10
2024-02-13T16:42:06.688Z,68.46
2024-02-13T16:46:10.031Z,69.22
2024-02-13T16:50:11.716Z,68.62
2024-02-13T16:54:13.457Z,68.37
2024-02-13T16:58:16.236Z,68.95
2024-02-13T17:02:19.319Z,69.17
2024-02-13T17:06:21.275Z,69.49
2024-02-13T17:10:23.151Z,70.29
2024-02-13T17:14:24.883Z,68.41
2024-02-13T17:18:28.509Z,69.96
2024-02-13T17:22:30.276Z,68.69
2024-02-13T17:26:32.369Z,71.04
2024-02-13T17:30:34.234Z,70.39
2024-02-13T17:34:38.157Z,70.06
2024-02-13T17:38:40.033Z,70.76
2024-02-13T17:42:41.877Z,69.91
2024-02-13T17:46:43.496Z,71.17
2024-02-13T17:50:47.226Z,71.38
2024-02-13T17:54:48.868Z,71.17
2024-02-13T17:58:50.605Z,71.35
2024-02-13T18:02:52.290Z,71.85
2024-02-13T18:06:55.607Z,72.29
2024-02-13T18:10:57.571Z,72.26
2024-02-13T18:14:59.501Z,73.46
2024-02-13T18:19:02.005Z,73.22
2024-02-13T18:23:05.512Z,73.33
2024-02-13T18:27:11.254Z,72.35
2024-02-13T18:31:13.095Z,73.89
2024-02-13T18:35:14.907Z,73.43
2024-02-13T18:39:18.942Z,72.70
2024-02-13T18:43:20.581Z,73.44
2024-02-13T18:47:22.264Z,73.82
2024-02-13T18:51:24.344Z,73.30
2024-02-13T18:55:27.350Z,74.28
2024-02-13T18:59:28.982Z,75.13
2024-02-13T19:03:31.114Z,74.34
2024-02-13T19:07:32.746Z,73.78
2024-02-13T19:11:35.798Z,74.31
2024-02-13T19:15:37.471Z,74.86
2024-02-13T19:19:40.417Z,75.01
2024-02-13T19:23:42.136Z,74.68
2024-02-13T19:27:45.468Z,75.27
2024-02-13T19:31:47.091Z,75.52
2024-02-13T19:35:51.595Z,75.98
2024-02-13T19:39:53.338Z,75.96
2024-02-13T19:43:56.434Z,75.75
2024-02-13T19:47:58.176Z,76.27
2024-02-13T19:51:59.976Z,75.72
2024-02-13T19:56:01.901Z,75.87
2024-02-13T20:00:07.452Z,76.44
2024-02-13T20:04:11.456Z,76.78
2024-02-13T20:08:13.216Z,76.28
2024-02-13T20:12:14.998Z,76.76
2024-02-13T20:16:17.963Z,76.98
2024-02-13T20:20:20.002Z,77.25
2024-02-13T20:24:21.597Z,76.94
2024-02-13T20:28:23.349Z,77.08
2024-02-13T20:32:27.233Z,77.51
2024-02-13T20:36:29.003Z,77.07
2024-02-13T20:40:30.686Z,77.41
2024-02-13T20:44:32.527Z,77.53
2024-02-13T20:48:35.687Z,77.14
2024-02-13T20:52:37.943Z,77.87
2024-02-13T20:56:39.675Z,77.60
2024-02-13T21:00:41.559Z,78.76
2024-02-13T21:04:45.216Z,78.70
2024-02-13T21:08:46.969Z,78.68
2024-02-13T21:12:48.663Z,78.16
2024-02-13T21:16:50.343Z,78.34
2024-02-13T21:20:53.645Z,78.14
2024-02-13T21:24:55.343Z,78.13
2024-02-13T21:28:57.120Z,78.32
2024-02-13T21:32:58.842Z,77.42
2024-02-13T21:37:01.846Z,77.83
2024-02-13T21:41:03.664Z,77.80
2024-02-13T21:45:06.280Z,77.74
2024-02-13T21:49:08.231Z,77.83
2024-02-13T21:53:11.526Z,77.53
2024-02-13T21:57:13.567Z,76.99
2024-02-13T22:01:16.637Z,78.24
2024-02-13T22:05:18.317Z,77.38
2024-02-13T22:09:21.271Z,77.28
2024-02-13T22:13:24.225Z,77.66
2024-02-13T22:17:25.949Z,77.48
2024-02-13T22:21:28.148Z,78.16
2024-02-13T22:25:31.409Z,78.07
2024-02-13T22:29:33.533Z,77.84
2024-02-13T22:33:35.836Z,77.34
2024-02-13T22:37:37.717Z,77.69
2024-02-13T22:41:40.795Z,76.96
2024-02-13T22:45:43.690Z,78.38
2024-02-13T22:49:45.351Z,77.40
2024-02-13T22:53:47.264Z,77.72
2024-02-13T22:57:50.366Z,77.52
2024-02-13T23:01:51.930Z,75.92
2024-02-13T23:05:54.568Z,75.40
2024-02-13T23:09:56.373Z,75.65
2024-02-13T23:13:59.630Z,75.16
2024-02-13T23:18:01.566Z,76.20
2024-02-13T23:22:04.145Z,74.75
2024-02-13T23:26:05.801Z,74.67
2024-02-13T23:30:10.647Z,75.90
2024-02-13T23:34:12.495Z,75.10
2024-02-13T23:38:14.267Z,74.76
2024-02-13T23:42:15.895Z,75.35
2024-02-13T23:46:19.030Z,74.85
2024-02-13T23:50:20.681Z,75.12
2024-02-13T23:54:22.465Z,75.07
2024-02-13T23:58:25.743Z,74.84
